Huvudsida
METAR-TAF:

METAR-TAF

Flygplatser :

Mosjøens flygplats. Kjærstad

Mosjøen, Norge

latitud: 65-48N, longitud: 013-08E, höjd: 70 m

Aktuellt väderrapport

Denna rapport gjordes för 34 minuter sedan, klockan 07:20 UTC
Vind 1 kt varierande vindriktning
Temperatur 7°C
Fuktighet 93%
Tryck 1010 hPa
Sikt 10 km eller mer
Få moln på en höjd av 1000 ft
Spridda moln på en höjd av 2700 ft
Brutna moln på en höjd av 4000 ft
skurar i närheten

METAR: ENMS 180720Z VRB01KT 9999 VCSH FEW010 SCT027 BKN040 07/06 Q1010 RMK WIND 412FT VRB02KT

Tid: 09:54 (07:54 UTC)


TAF: saknas

Aktuella väderrapporter och prognoser från 4000 flygplatser (METAR- och TAF-rapporter).

De tillgängliga stationerna syns som gula och röda prickar på kartan.

För musen över prickarna för att se namnen på stationerna.

Klicka sedan för att få väderrapporter och prognoser.

För att ändra kartan: Klicka på de gröna knapparna med ett svart kors på för att zooma in; den gröna knappen med ett streck på för att zooma ut; eller på de gröna pilarna för angränsande kartor.


METAR-TAF: